Skip to content

METAR no Ubuntu via terminal

26/04/2010
tags: ,

Para quem é usuário do Sistema Operacional Ubuntu vale a pena instalar um pacote que baixa e pode também detalhar o METAR.

Para instalar, o comando é o seguinte:

sudo apt-get update

sudo apt-get install metar

Para acessar o METAR, basta abrir o terminal e digitar “metar (ICAO do aeroporto)”

Ex: metar sbpa

ou até mesmo mais de um aeroporto

metar sbpa sbfl sbct sblo sbsp

O resultado foi:

SBPA 261600Z 28011KT 5000 BR BKN009 OVC016 22/21 Q1008
SBFL 261600Z 02006KT 8000 -TSRA SCT004 BKN013 FEW025CB OVC100 20/// Q1009 RERA
SBCT 261500Z 01009KT 9999 BKN014 SCT100 22/18 Q1015
SBLO 261500Z 02010KT 9999 FEW030 29/18 Q1013
SBSP 261500Z 34006KT 9999 SCT035 28/16 Q1017

E ainda  na opção detalhada basta digitar “-d”, sem aspas após o “metar”.

Ex: metar -d sbgl

O resultado foi:

SBGL 261600Z 05008KT CAVOK 34/20 Q1011
Station       : SBGL
Day           : 26
Time          : 16:00 UTC
Wind direction: 50 (NE)
Wind speed    : 8 KT
Wind gust     : 8 KT
Visibility    : 0
Temperature   : 34 C
Dewpoint      : 20 C
Pressure      : 1011 hPa
Clouds        :
Phenomena     : Ceiling and visibility OK

Está aí a dica. Para quem não conhece o Ubuntu há um link no painel direito. Vale a pena testar.

Anúncios
One Comment leave one →
  1. 18/05/2010 09:49

    Treinamento para novos instrutores Ubuntu

    A Fuctura, Master Ubuntu para treinamento, junto com os novos Partners Ubuntu Brasil, lança o programa para formação de instrutores oficiais Ubuntu com o objetivo de treinar, formar e contratar instrutores em todo território nacional.

    Vantagens para o Instrutor

    O programa oferece várias vantagens, entre elas a possibilidade do instrutor trabalhar em todo território nacional, ter o investimento do curso devolvido junto com a sua primeira turma ministrada, e ter um contato direto com a equipe de treinamento e desenvolvimento da Canonical.

    Participe: http://www.aprendaubuntu.com.br

    O programa de treinamento vai atender inicialmente:

    1. Recife, PE: 24 de maio (Fuctura)
    2. Petrolina, PE: 05 e 06 de junho e 12 e 13 de junho (Fuctura)
    3. Maceió, AL: 12 e 13 de junho e 19 e 20 de junho (Oficina Livre)
    4. Porto Alegre, RS: 19 e 20 de junho e 26 e 27 de junho (Hitec)
    5. Fortaleza, CE: 19 e 20 de junho e 26 e 27 de junho
    6. Belo Horizonte, MG: 10 e 11 de julho e 17 e 18 de julho
    7. João Pessoa, PB: aguarde
    8. São Paulo, SP: aguarde
    9. Rio de Janeiro, RJ: aguarde
    10. Manaus, AM: aguarde

Deixe um comentário

Preencha os seus dados abaixo ou clique em um ícone para log in:

Logotipo do WordPress.com

Você está comentando utilizando sua conta WordPress.com. Sair / Alterar )

Imagem do Twitter

Você está comentando utilizando sua conta Twitter. Sair / Alterar )

Foto do Facebook

Você está comentando utilizando sua conta Facebook. Sair / Alterar )

Foto do Google+

Você está comentando utilizando sua conta Google+. Sair / Alterar )

Conectando a %s

%d blogueiros gostam disto: